Terminal Aerodrome Forecast
Issued by NWS Wilmington, OH

Current Version | Previous Version | Text Only | Print | Product List | Glossary Off
Versions: 1 2 3 4 5 6 7 8 9 10 11 12 13 14 15 16 17 18 19 20 21 22 23 24 25 26 27

433
FTUS41 KILN 271307 AAA
TAFDAY
TAF AMD
KDAY 271307Z 2713/2812 28007KT 5SM BR OVC015
     FM271600 29009KT P6SM SCT015 BKN035
     FM280100 33004KT P6SM SCT080
     FM280700 15004KT P6SM VCSH BKN025=

USA.gov is the U.S. government's official web portal to all federal, state and local government web resources and services.